Impacts TAF Board
For situational awareness. Not to be used for flight planning purposes.
IDs:

KLAS - Las Vegas/Reid Intl, NV, US

Issued at 1120 UTC 10 Aug 2022
Updated at 1454 UTC 10 Aug 2022
Potential Impact None Slight Moderate High
Time1356Z 10/15Z 10/16Z 10/17Z 10/18Z 10/19Z 10/20Z 10/21Z 10/22Z 10/23Z 11/00Z 11/01Z 11/02Z 11/03Z>>
Type OBS PRVL PRVL PRVL PRVL PRVL PRVL PRVL
  [TEMP]  
PRVL
  [TEMP]  
PRVL
  [TEMP]  
PRVL
  [TEMP]  
PRVL PRVL PRVL
VIS 10 >6 >6 >6 >6 >6 >6 >6
  [>6]  
>6
  [>6]  
>6
  [>6]  
>6
  [>6]  
>6 >6 >6
CIG -- 200 200 200 200 200 200 200
  [100]  
200
  [100]  
200
  [100]  
200
  [100]  
200 150 150
Cover SCT BKN BKN BKN BKN BKN BKN BKN
  [BKN]  
BKN
  [BKN]  
BKN
  [BKN]  
BKN
  [BKN]  
BKN BKN BKN
FltCat VFR VFR VFR VFR VFR VFR VFR VFR
  [VFR]  
VFR
  [VFR]  
VFR
  [VFR]  
VFR
  [VFR]  
VFR VFR VFR
WX -- -- -- -- -- -- VCTS VCTS
  [-TSRA]  
VCTS
  [-TSRA]  
VCTS
  [-TSRA]  
VCTS
  [-TSRA]  
VCTS -- --
WDir VRB VRB VRB VRB VRB VRB 190 190
[VRB]
190
[VRB]
190
[VRB]
190
[VRB]
190 170 170
WSpd 0 5 5 5 5 5 7 7
  [20]  
7
  [20]  
7
  [20]  
7
  [20]  
7 8 8
WGst -- -- -- -- -- -- -- --
  [30]  
--
  [30]  
--
  [30]  
--
  [30]  
-- -- --
WSHgt -- -- -- -- -- -- -- --
[--]
--
[--]
--
[--]
--
[--]
-- -- --
WSDir -- -- -- -- -- -- -- --
[--]
--
[--]
--
[--]
--
[--]
-- -- --
WSSpd -- -- -- -- -- -- -- --
[--]
--
[--]
--
[--]
--
[--]
-- -- --
Raw TAF
KLAS 101120Z 1012/1118 VRB05KT P6SM SCT150 BKN200
  FM102000 19007KT P6SM VCTS SCT120CB BKN200
  TEMPO 1021/1101 VRB20G30KT P6SM -TSRA BKN100CB
  FM110200 17008KT P6SM SCT120 BKN150
  FM110600 VRB06KT P6SM SCT120 BKN150


Raw METAR
KLAS 101356Z 00000KT 10SM FEW140 SCT200 28/19 A3007 RMK AO2 SLP155 T02780189
KLAS 101256Z 14003KT 10SM FEW140 SCT200 27/19 A3005 RMK AO2 SLP149 ACC DSNT E T02720189
KLAS 101156Z 00000KT 10SM FEW140 FEW180 28/18 A3003 RMK AO2 SLP142 60000 T02780183 10294 20278 51004

METAR Board
Radar Display
Forecast Discussion
For situational awareness. Not to be used for flight planning purposes.